Time;durP1;ratioP1;P1;durP2;ratioP2;P2;SDS_P1;SDS_P2;PMS_P1;PMS_P2;Temp;Humidity;BMP_temperature;BMP_pressure;BME280_temperature;BME280_humidity;BME280_pressure;Samples;Min_cycle;Max_cycle;Signal;HPM_P1;HPM_P2
2023/09/09 00:00:43;;;;;;;7.90;7.18;;;;;;;20.00;100.00;96701.47;5095684;28;20267;-55
2023/09/09 00:03:10;;;;;;;8.35;7.50;;;;;;;19.99;100.00;96696.28;5114185;28;20235;-54
2023/09/09 00:05:36;;;;;;;8.25;7.45;;;;;;;19.98;100.00;96695.47;5105726;28;20205;-55
2023/09/09 00:08:03;;;;;;;7.70;7.13;;;;;;;19.94;100.00;96690.72;5109580;28;20287;-55
2023/09/09 00:10:30;;;;;;;8.98;8.10;;;;;;;19.95;100.00;96695.03;5085048;28;20536;-54
2023/09/09 00:12:57;;;;;;;8.63;8.00;;;;;;;19.90;100.00;96687.59;5112427;28;20201;-54
2023/09/09 00:15:25;;;;;;;8.32;7.57;;;;;;;19.90;100.00;96692.13;5116082;28;20201;-55
2023/09/09 00:17:52;;;;;;;9.20;8.40;;;;;;;19.86;100.00;96689.88;5116998;28;20600;-54
2023/09/09 00:20:18;;;;;;;8.73;7.93;;;;;;;19.83;100.00;96692.94;5118127;28;20273;-55
2023/09/09 00:22:45;;;;;;;8.45;7.85;;;;;;;19.82;100.00;96693.97;5103415;28;20299;-55
2023/09/09 00:25:12;;;;;;;8.65;7.80;;;;;;;19.78;100.00;96699.91;5117723;28;20308;-54
2023/09/09 00:27:38;;;;;;;9.32;8.38;;;;;;;19.80;100.00;96700.56;5114519;28;20564;-54
2023/09/09 00:30:08;;;;;;;8.55;7.85;;;;;;;19.77;100.00;96701.78;5101969;28;20703;-54
2023/09/09 00:32:35;;;;;;;10.95;8.93;;;;;;;19.77;100.00;96692.88;5108240;27;20283;-56
2023/09/09 00:35:03;;;;;;;10.82;9.05;;;;;;;19.78;100.00;96697.25;5121532;27;20301;-55
2023/09/09 00:37:29;;;;;;;8.70;8.10;;;;;;;19.78;100.00;96694.56;5117600;28;20205;-54
2023/09/09 00:39:56;;;;;;;9.73;8.93;;;;;;;19.78;100.00;96695.38;5128927;28;20201;-54
2023/09/09 00:42:22;;;;;;;9.20;8.32;;;;;;;19.78;100.00;96694.56;5130926;28;20229;-53
2023/09/09 00:44:49;;;;;;;9.32;8.52;;;;;;;19.77;100.00;96699.09;5139925;28;20244;-53
2023/09/09 00:47:18;;;;;;;9.13;8.38;;;;;;;19.75;100.00;96701.16;5136841;28;20220;-53
2023/09/09 00:49:46;;;;;;;11.13;8.55;;;;;;;19.73;100.00;96697.81;5137200;28;20217;-54
2023/09/09 00:52:12;;;;;;;9.98;8.77;;;;;;;19.70;100.00;96706.28;5140089;28;20244;-53
2023/09/09 00:54:38;;;;;;;11.93;8.30;;;;;;;19.73;100.00;96697.81;5140157;28;20217;-54
2023/09/09 00:57:05;;;;;;;9.95;9.02;;;;;;;19.72;100.00;96701.56;5136849;28;20189;-53
2023/09/09 00:59:32;;;;;;;10.70;9.70;;;;;;;19.72;100.00;96701.56;5119552;28;20194;-53
2023/09/09 01:01:59;;;;;;;8.95;8.25;;;;;;;19.69;100.00;96701.97;5123172;28;20217;-54
2023/09/09 01:04:25;;;;;;;8.82;8.07;;;;;;;19.67;100.00;96698.63;5128214;28;20189;-53
2023/09/09 01:06:54;;;;;;;9.18;8.38;;;;;;;19.63;100.00;96700.03;5137126;27;20232;-54
2023/09/09 01:09:20;;;;;;;9.35;8.45;;;;;;;19.62;100.00;96698.41;5126596;28;20191;-54
2023/09/09 01:11:47;;;;;;;9.23;8.40;;;;;;;19.56;100.00;96693.81;5132165;28;20197;-53
2023/09/09 01:14:16;;;;;;;9.57;8.68;;;;;;;19.54;100.00;96706.59;5111983;28;20206;-54
2023/09/09 01:16:46;;;;;;;9.60;8.80;;;;;;;19.54;100.00;96700.41;5113396;28;20259;-56
2023/09/09 01:19:17;;;;;;;9.65;8.75;;;;;;;19.50;100.00;96702.66;5128828;28;20659;-55
2023/09/09 01:21:45;;;;;;;9.60;8.80;;;;;;;19.46;100.00;96698.72;5126955;28;20201;-54
2023/09/09 01:24:16;;;;;;;9.57;8.88;;;;;;;19.47;100.00;96697.69;5122770;28;20539;-56
2023/09/09 01:26:43;;;;;;;10.02;9.10;;;;;;;19.44;100.00;96708.81;5127753;28;20232;-55
2023/09/09 01:29:12;;;;;;;11.27;9.32;;;;;;;19.45;100.00;96698.94;5123250;28;20236;-55
2023/09/09 01:31:41;;;;;;;9.57;8.60;;;;;;;19.43;100.00;96712.53;5111563;28;20296;-55
2023/09/09 01:34:08;;;;;;;9.73;9.02;;;;;;;19.37;100.00;96714.13;5120667;28;20637;-56
2023/09/09 01:36:37;;;;;;;9.93;8.93;;;;;;;19.36;100.00;96715.13;5126166;28;20215;-53
2023/09/09 01:39:05;;;;;;;11.15;10.10;;;;;;;19.33;100.00;96712.84;5112424;28;20212;-55
2023/09/09 01:41:37;;;;;;;10.63;9.40;;;;;;;19.32;100.00;96711.19;5122732;28;20213;-54
2023/09/09 01:44:05;;;;;;;10.80;9.68;;;;;;;19.32;100.00;96713.84;5109632;28;20194;-55
2023/09/09 01:46:32;;;;;;;10.98;10.07;;;;;;;19.29;100.00;96714.25;5108748;28;20237;-56
2023/09/09 01:49:03;;;;;;;10.05;9.15;;;;;;;19.30;100.00;96712.41;5119090;28;20213;-55
2023/09/09 01:51:32;;;;;;;10.70;9.90;;;;;;;19.31;100.00;96719.41;5107850;28;20201;-55
2023/09/09 01:53:59;;;;;;;11.43;10.20;;;;;;;19.31;100.00;96708.69;5114072;28;20219;-54
2023/09/09 01:56:26;;;;;;;11.48;10.15;;;;;;;19.28;100.00;96714.44;5110134;28;20289;-56
2023/09/09 01:58:54;;;;;;;11.25;10.15;;;;;;;19.26;100.00;96708.47;5106226;28;20209;-55
2023/09/09 02:01:20;;;;;;;11.60;10.70;;;;;;;19.23;100.00;96711.53;5116066;28;20553;-55
2023/09/09 02:03:49;;;;;;;12.23;11.02;;;;;;;19.23;100.00;96711.53;5117222;28;20667;-56
2023/09/09 02:06:17;;;;;;;12.55;11.45;;;;;;;19.21;100.00;96706.34;5117372;28;20230;-56
2023/09/09 02:08:43;;;;;;;11.90;10.90;;;;;;;19.18;100.00;96701.38;5116492;28;20351;-54
2023/09/09 02:11:09;;;;;;;11.20;10.10;;;;;;;19.21;100.00;96708.19;5126973;28;20219;-54
2023/09/09 02:13:36;;;;;;;11.35;10.40;;;;;;;19.20;100.00;96711.94;5130683;28;20217;-54
2023/09/09 02:16:06;;;;;;;12.68;11.40;;;;;;;19.15;100.00;96704.47;5127876;28;20237;-54
2023/09/09 02:18:33;;;;;;;12.45;10.82;;;;;;;19.17;100.00;96707.75;5115121;28;20240;-54
2023/09/09 02:21:00;;;;;;;12.25;11.02;;;;;;;19.18;100.00;96708.59;5118354;28;20512;-55
2023/09/09 02:23:27;;;;;;;11.38;10.55;;;;;;;19.21;100.00;96708.19;5104441;28;20236;-53
2023/09/09 02:25:57;;;;;;;12.32;11.23;;;;;;;19.17;100.00;96702.41;5112274;28;20517;-54
2023/09/09 02:28:25;;;;;;;12.20;11.05;;;;;;;19.13;100.00;96708.38;5112037;28;20237;-55
2023/09/09 02:30:52;;;;;;;11.57;10.57;;;;;;;19.11;100.00;96713.06;5107928;28;20204;-54
2023/09/09 02:33:20;;;;;;;12.30;11.35;;;;;;;19.09;100.00;96707.09;5112524;28;20212;-53
2023/09/09 02:35:46;;;;;;;12.48;11.38;;;;;;;19.13;100.00;96711.03;5104799;28;20225;-55
2023/09/09 02:38:13;;;;;;;11.85;10.88;;;;;;;19.12;100.00;96704.03;5112071;28;20219;-55
2023/09/09 02:40:39;;;;;;;12.98;11.75;;;;;;;19.10;100.00;96712.25;5114648;28;20652;-53
2023/09/09 02:43:06;;;;;;;12.35;11.15;;;;;;;19.10;100.00;96711.41;5112127;28;20213;-53
2023/09/09 02:45:32;;;;;;;12.10;11.00;;;;;;;19.09;100.00;96707.94;5110890;28;20212;-54
2023/09/09 02:47:59;;;;;;;12.18;11.20;;;;;;;19.09;100.00;96717.81;5117402;28;20399;-54
2023/09/09 02:50:26;;;;;;;12.50;11.45;;;;;;;19.08;100.00;96710.78;5102432;28;20205;-53
2023/09/09 02:52:53;;;;;;;12.07;11.10;;;;;;;19.02;100.00;96720.44;5115791;28;20193;-52
2023/09/09 02:55:19;;;;;;;10.95;9.93;;;;;;;19.04;100.00;96717.56;5115028;28;20217;-56
2023/09/09 02:57:49;;;;;;;11.68;10.63;;;;;;;19.00;100.00;96710.91;5115083;28;20201;-54
2023/09/09 03:00:16;;;;;;;11.65;10.75;;;;;;;18.97;100.00;96714.81;5115303;28;20205;-54
2023/09/09 03:02:42;;;;;;;12.27;11.05;;;;;;;18.93;100.00;96716.22;5110193;28;20217;-55
2023/09/09 03:05:09;;;;;;;11.95;10.88;;;;;;;18.90;100.00;96705.91;5106118;28;20598;-54
2023/09/09 03:07:37;;;;;;;11.10;10.10;;;;;;;18.91;100.00;96709.41;5108508;28;20629;-54
2023/09/09 03:10:05;;;;;;;10.27;9.50;;;;;;;18.89;100.00;96710.44;5099565;28;20205;-53
2023/09/09 03:12:31;;;;;;;11.63;10.68;;;;;;;18.87;100.00;96711.66;5108980;28;20193;-53
2023/09/09 03:14:59;;;;;;;11.05;10.13;;;;;;;18.84;100.00;96717.41;5114042;28;20625;-54
2023/09/09 03:17:29;;;;;;;11.00;9.95;;;;;;;18.84;100.00;96723.59;5114521;28;20200;-55
2023/09/09 03:19:56;;;;;;;10.95;10.05;;;;;;;18.84;100.00;96722.75;5106110;28;20205;-53
2023/09/09 03:22:24;;;;;;;10.45;9.75;;;;;;;18.82;100.00;96722.94;5114335;28;20219;-54
2023/09/09 03:24:52;;;;;;;11.65;10.57;;;;;;;18.80;100.00;96727.66;5114230;28;20216;-55
2023/09/09 03:27:18;;;;;;;11.20;10.30;;;;;;;18.81;100.00;96715.09;5109715;28;20655;-54
2023/09/09 03:29:45;;;;;;;11.07;10.18;;;;;;;18.78;100.00;96723.50;5115178;28;20205;-54
2023/09/09 03:32:12;;;;;;;11.43;10.30;;;;;;;18.79;100.00;96720.66;5101940;28;20216;-54
2023/09/09 03:34:39;;;;;;;10.95;10.10;;;;;;;18.77;100.00;96728.06;5116864;28;20205;-55
2023/09/09 03:37:07;;;;;;;11.18;10.27;;;;;;;18.77;100.00;96730.75;5109810;28;20212;-54
2023/09/09 03:39:34;;;;;;;11.35;10.35;;;;;;;18.75;100.00;96735.44;5105631;28;20204;-57
2023/09/09 03:42:05;;;;;;;12.23;11.02;;;;;;;18.75;100.00;96734.59;5122688;28;20258;-53
2023/09/09 03:44:32;;;;;;;12.20;10.98;;;;;;;18.74;100.00;96728.41;5120797;28;21427;-53
2023/09/09 03:46:59;;;;;;;12.82;11.10;;;;;;;18.75;100.00;96734.59;5107274;28;20201;-54
2023/09/09 03:49:26;;;;;;;13.68;10.43;;;;;;;18.74;100.00;96732.97;5108437;28;20616;-53
2023/09/09 03:51:53;;;;;;;11.88;10.80;;;;;;;18.71;100.00;96728.81;5107108;28;20265;-53
2023/09/09 03:54:19;;;;;;;11.07;10.27;;;;;;;18.70;100.00;96735.22;5101521;28;20629;-54
2023/09/09 03:56:49;;;;;;;11.38;10.48;;;;;;;18.69;100.00;96736.22;5108179;28;20302;-54
2023/09/09 03:59:17;;;;;;;11.80;10.70;;;;;;;18.67;100.00;96732.88;5113422;28;20292;-53
2023/09/09 04:01:44;;;;;;;11.90;10.80;;;;;;;18.67;100.00;96730.19;5113635;28;20297;-53
2023/09/09 04:04:10;;;;;;;11.80;10.70;;;;;;;18.68;100.00;96723.84;5106733;28;20229;-53
2023/09/09 04:06:38;;;;;;;12.05;10.95;;;;;;;18.65;100.00;96726.91;5108705;28;20221;-54
2023/09/09 04:09:04;;;;;;;12.15;11.15;;;;;;;18.62;100.00;96729.97;5118218;28;20209;-53
2023/09/09 04:11:31;;;;;;;11.85;10.95;;;;;;;18.61;100.00;96728.28;5122048;28;20217;-55
2023/09/09 04:13:59;;;;;;;12.85;11.60;;;;;;;18.59;100.00;96729.50;5118500;28;20275;-55
2023/09/09 04:16:27;;;;;;;12.30;11.30;;;;;;;18.60;100.00;96731.97;5117089;28;20288;-52
2023/09/09 04:18:53;;;;;;;11.88;10.88;;;;;;;18.61;100.00;96725.63;5116508;28;20209;-54
2023/09/09 04:21:21;;;;;;;11.95;10.93;;;;;;;18.59;100.00;96727.66;5116743;28;20239;-54
2023/09/09 04:23:47;;;;;;;11.70;10.80;;;;;;;18.59;100.00;96725.00;5116016;28;20621;-53
2023/09/09 04:26:14;;;;;;;12.68;11.48;;;;;;;18.59;100.00;96730.34;5118515;28;20213;-55
2023/09/09 04:28:41;;;;;;;12.55;11.35;;;;;;;18.56;100.00;96730.72;5103964;28;20240;-53
2023/09/09 04:31:07;;;;;;;12.68;11.65;;;;;;;18.52;100.00;96732.13;5118262;28;20212;-54
2023/09/09 04:33:35;;;;;;;12.77;11.57;;;;;;;18.52;100.00;96734.81;5114940;28;20344;-54
2023/09/09 04:36:03;;;;;;;12.48;11.48;;;;;;;18.50;100.00;96734.13;5113145;28;20197;-55
2023/09/09 04:38:30;;;;;;;12.40;11.40;;;;;;;18.52;100.00;96739.34;5113382;28;20217;-55
2023/09/09 04:40:58;;;;;;;12.77;11.57;;;;;;;18.56;100.00;96741.44;5117483;28;20216;-54
2023/09/09 04:43:24;;;;;;;12.82;11.70;;;;;;;18.55;100.00;96739.78;5117895;28;20305;-54
2023/09/09 04:45:51;;;;;;;13.43;12.23;;;;;;;18.54;100.00;96748.81;5105644;28;20296;-54
2023/09/09 04:48:17;;;;;;;13.00;11.88;;;;;;;18.55;100.00;96745.13;5116928;28;20559;-54
2023/09/09 04:50:45;;;;;;;12.45;11.27;;;;;;;18.53;100.00;96752.50;5103903;28;20205;-55
2023/09/09 04:53:12;;;;;;;12.40;11.38;;;;;;;18.49;100.00;96748.56;5092733;28;20201;-56
2023/09/09 04:55:38;;;;;;;12.45;11.35;;;;;;;18.46;100.00;96746.22;5112751;28;20201;-56
2023/09/09 04:58:13;;;;;;;12.48;11.38;;;;;;;18.48;100.00;96749.56;5116861;28;20504;-55
2023/09/09 05:00:41;;;;;;;12.60;11.52;;;;;;;18.48;100.00;96743.38;5115991;28;20265;-55
2023/09/09 05:03:08;;;;;;;12.38;11.48;;;;;;;18.46;100.00;96740.88;5109981;28;20240;-56
2023/09/09 05:05:34;;;;;;;12.63;11.48;;;;;;;18.48;100.00;96754.09;5103555;28;20210;-55
2023/09/09 05:08:02;;;;;;;12.70;11.70;;;;;;;18.47;100.00;96745.22;5105249;28;20210;-55
2023/09/09 05:10:29;;;;;;;12.70;11.70;;;;;;;18.49;100.00;96745.03;5113294;28;20201;-55
2023/09/09 05:12:56;;;;;;;12.48;11.18;;;;;;;18.49;100.00;96756.59;5111062;28;20266;-53
2023/09/09 05:15:25;;;;;;;12.23;11.30;;;;;;;18.51;100.00;96754.56;5123545;28;20613;-55
2023/09/09 05:17:52;;;;;;;12.15;11.15;;;;;;;18.51;100.00;96759.91;5116952;28;20216;-54
2023/09/09 05:20:19;;;;;;;12.80;11.55;;;;;;;18.52;100.00;96755.41;5115793;28;20212;-55
2023/09/09 05:22:45;;;;;;;11.98;10.88;;;;;;;18.56;100.00;96767.41;5102316;28;20698;-54
2023/09/09 05:25:14;;;;;;;12.68;11.65;;;;;;;18.56;100.00;96765.56;5099568;28;20216;-56
2023/09/09 05:27:40;;;;;;;12.35;11.30;;;;;;;18.59;100.00;96767.00;5115514;28;20323;-54
2023/09/09 05:30:08;;;;;;;12.40;11.30;;;;;;;18.62;100.00;96769.31;5114841;28;20193;-54
2023/09/09 05:32:35;;;;;;;12.32;11.30;;;;;;;18.62;100.00;96767.47;5100988;28;20221;-54
2023/09/09 05:35:02;;;;;;;12.63;11.57;;;;;;;18.68;100.00;96765.88;5093829;28;20204;-55
2023/09/09 05:37:30;;;;;;;12.40;11.40;;;;;;;18.73;100.00;96771.50;5108528;28;20508;-55
2023/09/09 05:40:00;;;;;;;11.95;10.95;;;;;;;18.76;100.00;96769.25;5085962;28;20220;-54
2023/09/09 05:42:29;;;;;;;12.35;11.30;;;;;;;18.81;100.00;96766.81;5108646;28;20197;-55
2023/09/09 05:44:56;;;;;;;13.05;11.73;;;;;;;18.84;100.00;96771.81;5114138;28;20237;-54
2023/09/09 05:47:23;;;;;;;12.30;11.32;;;;;;;18.91;100.00;96766.53;5110147;28;20197;-55
2023/09/09 05:49:49;;;;;;;12.38;11.38;;;;;;;18.96;100.00;96763.25;5107478;28;20315;-54
2023/09/09 05:52:16;;;;;;;13.80;12.50;;;;;;;19.01;100.00;96769.69;5110055;28;20208;-56
2023/09/09 05:54:42;;;;;;;12.73;11.20;;;;;;;19.05;100.00;96765.63;5104962;28;20550;-56
2023/09/09 05:57:10;;;;;;;13.45;12.25;;;;;;;19.14;100.00;96767.13;5119471;28;20285;-53
2023/09/09 05:59:38;;;;;;;12.80;11.90;;;;;;;19.23;100.00;96767.84;5110172;28;20201;-55
2023/09/09 06:02:05;;;;;;;14.63;13.32;;;;;;;19.30;100.00;96771.41;5103778;28;20205;-53
2023/09/09 06:04:34;;;;;;;13.90;12.75;;;;;;;19.43;100.00;96770.69;5109403;28;20228;-56
2023/09/09 06:07:00;;;;;;;13.63;12.52;;;;;;;19.64;100.00;96771.47;5116121;28;20197;-54
2023/09/09 06:09:27;;;;;;;14.50;13.23;;;;;;;19.96;100.00;96766.50;5109087;28;20197;-55
2023/09/09 06:11:53;;;;;;;15.13;13.75;;;;;;;20.25;100.00;96776.97;5116747;28;20201;-54
2023/09/09 06:14:20;;;;;;;14.95;13.77;;;;;;;20.68;100.00;96777.56;5111224;28;20204;-55
2023/09/09 06:16:48;;;;;;;16.00;13.93;;;;;;;21.11;100.00;96788.88;5093734;28;20205;-53
2023/09/09 06:19:14;;;;;;;15.88;14.43;;;;;;;21.53;100.00;96788.47;5109072;28;20208;-54
2023/09/09 06:21:41;;;;;;;15.25;13.85;;;;;;;21.84;100.00;96782.41;5109299;28;20215;-55
2023/09/09 06:24:08;;;;;;;14.65;13.35;;;;;;;22.42;100.00;96786.00;5110074;28;20245;-54
2023/09/09 06:26:35;;;;;;;15.13;13.57;;;;;;;22.91;100.00;96789.94;5114603;28;20209;-54
2023/09/09 06:29:01;;;;;;;13.38;12.25;;;;;;;23.62;100.00;96785.91;5115007;28;20221;-56
2023/09/09 06:31:28;;;;;;;13.30;11.98;;;;;;;24.03;100.00;96792.56;5116186;28;20212;-54
2023/09/09 06:33:56;;;;;;;13.50;12.18;;;;;;;23.94;100.00;96794.75;5116651;28;20194;-53
2023/09/09 06:36:22;;;;;;;14.57;12.98;;;;;;;23.73;100.00;96789.78;5103287;28;20594;-55
2023/09/09 06:38:49;;;;;;;13.27;12.07;;;;;;;23.91;100.00;96789.81;5108812;28;20205;-53
2023/09/09 06:41:17;;;;;;;13.80;12.60;;;;;;;24.10;100.00;96790.63;5108303;28;20200;-53
2023/09/09 06:43:44;;;;;;;13.65;12.30;;;;;;;24.05;100.00;96793.19;5109066;28;20228;-54
2023/09/09 06:46:11;;;;;;;13.40;12.40;;;;;;;23.57;100.00;96796.53;5115636;28;20205;-54
2023/09/09 06:48:37;;;;;;;13.85;12.73;;;;;;;23.22;100.00;96796.16;5116146;28;20209;-54
2023/09/09 06:51:05;;;;;;;13.85;12.75;;;;;;;23.01;100.00;96798.38;5117700;28;20224;-54
2023/09/09 06:53:33;;;;;;;13.82;12.65;;;;;;;22.80;100.00;96808.47;5117461;28;20201;-53
2023/09/09 06:55:59;;;;;;;14.68;13.15;;;;;;;22.65;100.00;96810.56;5113140;28;20201;-52
2023/09/09 06:58:27;;;;;;;15.55;13.93;;;;;;;22.51;100.00;96806.28;5104073;28;20216;-55
2023/09/09 07:00:54;;;;;;;14.07;12.82;;;;;;;22.32;100.00;96809.84;5112735;28;20216;-54
2023/09/09 07:03:21;;;;;;;15.43;14.05;;;;;;;22.22;100.00;96809.47;5114588;28;20503;-54
2023/09/09 07:05:48;;;;;;;14.50;13.25;;;;;;;22.12;100.00;96806.41;5115344;28;20545;-54
2023/09/09 07:08:16;;;;;;;15.50;14.07;;;;;;;22.00;100.00;96811.59;5107613;28;20217;-55
2023/09/09 07:10:49;;;;;;;14.73;13.48;;;;;;;21.90;100.00;96816.59;5110779;28;20227;-53
2023/09/09 07:13:16;;;;;;;14.90;13.63;;;;;;;21.84;100.00;96812.84;5109485;28;20696;-54
2023/09/09 07:15:44;;;;;;;14.27;13.13;;;;;;;21.85;100.00;96819.06;5118798;28;20202;-56
2023/09/09 07:18:10;;;;;;;14.55;13.23;;;;;;;21.82;100.00;96820.31;5120432;28;20819;-54
2023/09/09 07:20:38;;;;;;;16.60;15.00;;;;;;;21.80;100.00;96817.00;5109347;28;20205;-51
2023/09/09 07:23:04;;;;;;;15.40;14.02;;;;;;;21.76;100.00;96821.16;5111561;28;20606;-53
2023/09/09 07:25:34;;;;;;;15.07;13.73;;;;;;;21.77;100.00;96822.81;5114765;28;20221;-54
2023/09/09 07:28:00;;;;;;;16.02;14.52;;;;;;;21.75;100.00;96824.06;5114387;28;20259;-54
2023/09/09 07:30:27;;;;;;;15.82;14.45;;;;;;;21.76;100.00;96820.31;5114286;28;20227;-52
2023/09/09 07:32:53;;;;;;;16.30;14.80;;;;;;;21.72;100.00;96827.97;5114487;28;20472;-54
2023/09/09 07:35:20;;;;;;;17.65;15.63;;;;;;;21.66;100.00;96823.44;5114764;28;20201;-53
2023/09/09 07:37:47;;;;;;;16.00;14.70;;;;;;;21.69;100.00;96820.31;5106007;28;20212;-53
2023/09/09 07:40:13;;;;;;;15.32;13.82;;;;;;;21.78;100.00;96812.88;5114194;28;20194;-53
2023/09/09 07:42:41;;;;;;;15.18;13.90;;;;;;;21.82;100.00;96825.69;5118754;28;20216;-55
2023/09/09 07:45:08;;;;;;;14.77;13.55;;;;;;;21.88;100.00;96818.66;5114159;28;20217;-54
2023/09/09 07:47:35;;;;;;;16.33;14.55;;;;;;;22.07;100.00;96827.78;5116113;28;20227;-53
2023/09/09 07:50:01;;;;;;;16.08;14.57;;;;;;;22.26;100.00;96822.31;5117974;28;20201;-56
2023/09/09 07:52:28;;;;;;;15.50;14.10;;;;;;;22.43;100.00;96819.97;5110984;28;20593;-53
2023/09/09 07:54:54;;;;;;;16.80;15.43;;;;;;;22.56;100.00;96819.94;5104704;28;20216;-55
2023/09/09 07:57:21;;;;;;;16.50;15.07;;;;;;;22.67;100.00;96819.28;5114504;28;20201;-56
2023/09/09 07:59:49;;;;;;;17.58;15.95;;;;;;;22.67;100.00;96811.19;5108504;28;20371;-55
2023/09/09 08:02:15;;;;;;;14.18;13.07;;;;;;;22.78;100.00;96813.22;5115290;28;20209;-53
2023/09/09 08:04:42;;;;;;;13.90;12.70;;;;;;;22.90;100.00;96816.06;5111990;28;20221;-53
2023/09/09 08:07:08;;;;;;;13.68;12.55;;;;;;;23.02;100.00;96827.00;5106144;28;20208;-54
2023/09/09 08:09:35;;;;;;;13.70;12.50;;;;;;;23.12;100.00;96821.97;5117445;28;20655;-55
2023/09/09 08:12:02;;;;;;;15.27;13.98;;;;;;;23.11;100.00;96818.44;5117443;28;20216;-54
2023/09/09 08:14:30;;;;;;;14.98;13.57;;;;;;;23.23;100.00;96821.28;5112274;28;20201;-54
2023/09/09 08:16:58;;;;;;;14.00;12.90;;;;;;;23.34;100.00;96830.53;5119174;28;20213;-54
2023/09/09 08:19:25;;;;;;;14.40;13.18;;;;;;;23.32;100.00;96833.44;5100997;28;20202;-53
2023/09/09 08:21:51;;;;;;;15.25;13.85;;;;;;;23.45;100.00;96832.59;5108480;28;20564;-55
2023/09/09 08:24:18;;;;;;;15.82;14.43;;;;;;;23.59;100.00;96829.56;5103171;28;20697;-56
2023/09/09 08:26:44;;;;;;;16.45;14.88;;;;;;;23.58;100.00;96830.59;5114281;28;20236;-54
2023/09/09 08:29:11;;;;;;;13.70;12.43;;;;;;;23.89;100.00;96828.88;5113521;28;20228;-53
2023/09/09 08:31:37;;;;;;;12.70;11.60;;;;;;;24.23;100.00;96828.38;5115616;28;20227;-55
2023/09/09 08:34:05;;;;;;;14.55;13.23;;;;;;;24.43;100.00;96815.44;5110870;28;20217;-53
2023/09/09 08:36:33;;;;;;;13.50;12.40;;;;;;;24.75;100.00;96819.63;5107915;28;20232;-54
2023/09/09 08:39:00;;;;;;;12.30;11.23;;;;;;;25.12;100.00;96823.09;5117755;28;20219;-54
2023/09/09 08:41:41;;;;;;;13.05;11.95;;;;;;;25.29;100.00;96820.59;5117339;28;20216;-53
2023/09/09 08:44:12;;;;;;;13.77;12.57;;;;;;;25.52;100.00;96817.97;5116823;28;20674;-52
2023/09/09 08:46:39;;;;;;;13.40;12.13;;;;;;;25.72;100.00;96817.63;5117036;28;20698;-53
2023/09/09 08:49:08;;;;;;;13.27;11.90;;;;;;;25.93;100.00;96810.84;5109245;28;20216;-55
2023/09/09 08:51:39;;;;;;;12.98;11.68;;;;;;;26.06;100.00;96811.41;5112566;28;20210;-53
2023/09/09 08:54:07;;;;;;;11.70;10.77;;;;;;;26.34;100.00;96816.13;5118693;28;20511;-54
2023/09/09 08:56:34;;;;;;;11.85;10.95;;;;;;;26.57;100.00;96815.28;5104669;28;20628;-56
2023/09/09 08:59:00;;;;;;;11.95;10.85;;;;;;;26.73;100.00;96817.22;5107889;28;20209;-55
2023/09/09 09:01:29;;;;;;;12.07;11.00;;;;;;;26.86;98.83;96816.16;5117260;28;20207;-55
2023/09/09 09:03:57;;;;;;;11.95;10.85;;;;;;;27.00;95.09;96809.38;5117532;28;20209;-54
2023/09/09 09:06:26;;;;;;;12.90;11.70;;;;;;;26.89;96.38;96818.41;5115200;28;20201;-57
2023/09/09 09:08:54;;;;;;;11.65;10.73;;;;;;;27.12;93.46;96818.28;5116808;28;20217;-58
2023/09/09 09:11:21;;;;;;;11.75;10.75;;;;;;;27.31;95.55;96825.19;5115863;28;20210;-58
2023/09/09 09:13:50;;;;;;;11.68;10.68;;;;;;;27.26;93.12;96811.50;5115465;28;20288;-55
2023/09/09 09:16:18;;;;;;;11.40;10.40;;;;;;;27.48;91.26;96812.47;5114649;28;20201;-58
2023/09/09 09:18:44;;;;;;;12.63;11.52;;;;;;;27.55;92.20;96809.59;5117376;28;20201;-57
2023/09/09 09:21:11;;;;;;;11.35;10.35;;;;;;;27.85;91.52;96809.25;5115647;28;20205;-57
2023/09/09 09:23:44;;;;;;;11.27;10.23;;;;;;;27.80;89.82;96812.75;5116537;28;20197;-57
2023/09/09 09:26:24;;;;;;;12.18;11.07;;;;;;;27.83;89.34;96806.78;5104046;28;20212;-58
2023/09/09 09:28:51;;;;;;;12.43;11.32;;;;;;;28.08;87.60;96801.78;5112766;28;20229;-57
2023/09/09 09:31:20;;;;;;;11.15;10.20;;;;;;;28.18;88.89;96801.09;5112026;28;20651;-58
2023/09/09 09:33:48;;;;;;;10.85;9.95;;;;;;;28.06;84.05;96801.16;5116378;28;20267;-57
2023/09/09 09:36:17;;;;;;;10.18;9.30;;;;;;;28.59;88.11;96795.13;5107623;28;20209;-57
2023/09/09 09:38:45;;;;;;;10.95;9.95;;;;;;;28.69;85.19;96796.38;5115288;28;20235;-57
2023/09/09 09:41:11;;;;;;;9.77;9.02;;;;;;;28.73;84.48;96792.06;5113180;28;20606;-57
2023/09/09 09:43:38;;;;;;;10.48;9.68;;;;;;;28.75;84.46;96792.63;5102667;28;20201;-56
2023/09/09 09:46:14;;;;;;;10.30;9.40;;;;;;;28.98;85.24;96786.91;5115696;28;20221;-56
2023/09/09 09:48:40;;;;;;;10.40;9.60;;;;;;;28.96;82.19;96794.50;5116182;28;20230;-55
2023/09/09 09:51:07;;;;;;;10.68;9.75;;;;;;;29.12;80.93;96794.41;5116204;28;20205;-55
2023/09/09 09:53:37;;;;;;;10.45;9.27;;;;;;;29.09;81.34;96794.09;5110991;28;20277;-56
2023/09/09 09:56:05;;;;;;;9.63;8.73;;;;;;;29.38;81.54;96797.41;5113661;28;20275;-57
2023/09/09 09:58:34;;;;;;;10.75;9.82;;;;;;;29.11;80.62;96789.22;5108086;28;20262;-55
2023/09/09 10:01:03;;;;;;;11.13;10.15;;;;;;;29.25;80.25;96787.75;5112499;28;20357;-55
2023/09/09 10:03:48;;;;;;;9.35;8.65;;;;;;;29.62;80.71;96788.66;5110523;28;20209;-56
2023/09/09 10:06:21;;;;;;;9.25;8.55;;;;;;;29.99;79.48;96793.34;5115453;28;20213;-56
2023/09/09 10:08:52;;;;;;;11.32;8.98;;;;;;;30.28;78.65;96786.44;5113646;28;20201;-56
2023/09/09 10:11:23;;;;;;;9.48;8.68;;;;;;;30.26;77.76;96788.59;5114582;28;20648;-55
2023/09/09 10:13:54;;;;;;;9.70;8.80;;;;;;;30.21;76.82;96785.84;5107281;28;20197;-55
2023/09/09 10:16:23;;;;;;;9.88;9.07;;;;;;;30.22;73.42;96792.13;5115233;28;20278;-57
2023/09/09 10:18:51;;;;;;;9.75;8.93;;;;;;;30.06;74.91;96794.75;5116395;28;20277;-56
2023/09/09 10:21:19;;;;;;;9.63;8.93;;;;;;;30.11;76.25;96781.13;5108646;28;20545;-56
2023/09/09 10:23:46;;;;;;;9.77;8.98;;;;;;;30.21;75.92;96780.38;5108761;28;20213;-58
2023/09/09 10:26:13;;;;;;;9.65;8.88;;;;;;;30.12;75.56;96776.50;5114337;28;20221;-58
2023/09/09 10:28:41;;;;;;;10.00;9.30;;;;;;;30.39;74.08;96771.75;5116022;28;20723;-57
2023/09/09 10:31:11;;;;;;;8.77;8.07;;;;;;;30.59;74.88;96768.31;5114710;28;20205;-56
2023/09/09 10:33:38;;;;;;;9.20;8.50;;;;;;;30.81;72.49;96765.41;5108869;28;20211;-57
2023/09/09 10:36:05;;;;;;;9.90;9.10;;;;;;;30.52;72.62;96770.47;5114745;28;20244;-57
2023/09/09 10:38:32;;;;;;;10.50;9.60;;;;;;;30.68;73.72;96757.72;5114941;28;20212;-56
2023/09/09 10:40:58;;;;;;;9.52;8.68;;;;;;;30.66;71.35;96760.72;5115295;28;20201;-57
2023/09/09 10:43:25;;;;;;;8.68;8.07;;;;;;;30.86;72.64;96755.31;5114851;28;20216;-56
2023/09/09 10:45:53;;;;;;;9.88;9.00;;;;;;;30.44;70.06;96755.44;5107435;28;20232;-56
2023/09/09 10:48:21;;;;;;;9.15;8.23;;;;;;;30.56;73.26;96750.59;5113591;28;20205;-56
2023/09/09 10:50:49;;;;;;;9.90;9.10;;;;;;;30.89;71.54;96752.03;5114894;28;20201;-57
2023/09/09 10:53:18;;;;;;;9.00;8.20;;;;;;;30.92;70.92;96745.25;5114357;28;20647;-56
2023/09/09 10:55:46;;;;;;;8.45;7.85;;;;;;;31.06;72.67;96749.13;5114481;28;20212;-57
2023/09/09 10:58:16;;;;;;;9.00;8.30;;;;;;;31.09;69.95;96749.41;5112226;28;20213;-56
2023/09/09 11:00:45;;;;;;;8.27;7.57;;;;;;;31.07;68.08;96745.31;5115443;28;20193;-56
2023/09/09 11:03:15;;;;;;;7.88;7.28;;;;;;;31.50;69.48;96742.06;5115391;28;20205;-56
2023/09/09 11:06:02;;;;;;;8.07;7.47;;;;;;;31.58;66.33;96741.53;5106315;28;20312;-57
2023/09/09 11:08:32;;;;;;;8.27;7.68;;;;;;;31.78;71.18;96731.69;5110544;28;20204;-53
2023/09/09 11:11:10;;;;;;;9.18;8.38;;;;;;;31.79;69.91;96733.31;5116481;28;20567;-56
2023/09/09 11:13:41;;;;;;;11.02;8.88;;;;;;;31.66;67.28;96742.91;5104742;28;20210;-56
2023/09/09 11:16:08;;;;;;;8.27;7.47;;;;;;;31.68;65.92;96743.44;5106949;28;20517;-57